sensor_id;sensor_type;location;lat;lon;timestamp;temperature;humidity
15341;DHT22;7770;52.158;5.372;2023-09-30T00:01:46;12.50;99.90
15341;DHT22;7770;52.158;5.372;2023-09-30T00:04:33;12.60;99.90
15341;DHT22;7770;52.158;5.372;2023-09-30T00:07:19;12.60;99.90
15341;DHT22;7770;52.158;5.372;2023-09-30T00:10:06;12.60;99.90
15341;DHT22;7770;52.158;5.372;2023-09-30T00:12:52;12.70;99.90
15341;DHT22;7770;52.158;5.372;2023-09-30T00:15:38;12.80;99.90
15341;DHT22;7770;52.158;5.372;2023-09-30T00:18:24;12.80;99.90
15341;DHT22;7770;52.158;5.372;2023-09-30T00:21:10;12.90;99.90
15341;DHT22;7770;52.158;5.372;2023-09-30T00:23:57;12.90;99.90
15341;DHT22;7770;52.158;5.372;2023-09-30T00:26:43;12.90;99.90
15341;DHT22;7770;52.158;5.372;2023-09-30T00:29:29;12.90;99.90
15341;DHT22;7770;52.158;5.372;2023-09-30T00:32:15;12.90;99.90
15341;DHT22;7770;52.158;5.372;2023-09-30T00:35:02;12.90;99.90
15341;DHT22;7770;52.158;5.372;2023-09-30T00:37:48;13.00;99.90
15341;DHT22;7770;52.158;5.372;2023-09-30T00:40:34;12.90;99.90
15341;DHT22;7770;52.158;5.372;2023-09-30T00:43:21;13.00;99.90
15341;DHT22;7770;52.158;5.372;2023-09-30T00:46:23;13.00;99.90
15341;DHT22;7770;52.158;5.372;2023-09-30T00:49:14;13.00;99.90
15341;DHT22;7770;52.158;5.372;2023-09-30T00:52:00;13.00;99.90
15341;DHT22;7770;52.158;5.372;2023-09-30T00:54:49;13.00;99.90
15341;DHT22;7770;52.158;5.372;2023-09-30T00:57:36;13.00;99.90
15341;DHT22;7770;52.158;5.372;2023-09-30T01:00:23;12.90;99.90
15341;DHT22;7770;52.158;5.372;2023-09-30T01:03:11;12.90;99.90
15341;DHT22;7770;52.158;5.372;2023-09-30T01:05:57;12.90;99.90
15341;DHT22;7770;52.158;5.372;2023-09-30T01:08:44;12.90;99.90
15341;DHT22;7770;52.158;5.372;2023-09-30T01:11:30;12.90;99.90
15341;DHT22;7770;52.158;5.372;2023-09-30T01:14:32;12.80;99.90
15341;DHT22;7770;52.158;5.372;2023-09-30T01:17:24;12.80;99.90
15341;DHT22;7770;52.158;5.372;2023-09-30T01:20:10;12.70;99.90
15341;DHT22;7770;52.158;5.372;2023-09-30T01:23:02;12.60;99.90
15341;DHT22;7770;52.158;5.372;2023-09-30T01:25:49;12.50;99.90
15341;DHT22;7770;52.158;5.372;2023-09-30T01:28:35;12.50;99.90
15341;DHT22;7770;52.158;5.372;2023-09-30T01:31:22;12.50;99.90
15341;DHT22;7770;52.158;5.372;2023-09-30T01:34:08;12.40;99.90
15341;DHT22;7770;52.158;5.372;2023-09-30T01:36:54;12.50;99.90
15341;DHT22;7770;52.158;5.372;2023-09-30T01:39:40;12.40;99.90
15341;DHT22;7770;52.158;5.372;2023-09-30T01:42:26;12.50;99.90
15341;DHT22;7770;52.158;5.372;2023-09-30T01:45:12;12.60;99.90
15341;DHT22;7770;52.158;5.372;2023-09-30T01:47:58;12.50;99.90
15341;DHT22;7770;52.158;5.372;2023-09-30T01:50:44;12.50;99.90
15341;DHT22;7770;52.158;5.372;2023-09-30T01:53:30;12.40;99.90
15341;DHT22;7770;52.158;5.372;2023-09-30T01:56:16;12.50;99.90
15341;DHT22;7770;52.158;5.372;2023-09-30T01:59:02;12.50;99.90
15341;DHT22;7770;52.158;5.372;2023-09-30T02:01:49;12.50;99.90
15341;DHT22;7770;52.158;5.372;2023-09-30T02:04:35;12.50;99.90
15341;DHT22;7770;52.158;5.372;2023-09-30T02:07:21;12.50;99.90
15341;DHT22;7770;52.158;5.372;2023-09-30T02:10:07;12.50;99.90
15341;DHT22;7770;52.158;5.372;2023-09-30T02:12:53;12.50;99.90
15341;DHT22;7770;52.158;5.372;2023-09-30T02:15:40;12.40;99.90
15341;DHT22;7770;52.158;5.372;2023-09-30T02:18:27;12.50;99.90
15341;DHT22;7770;52.158;5.372;2023-09-30T02:21:13;12.50;99.90
15341;DHT22;7770;52.158;5.372;2023-09-30T02:23:59;12.50;99.90
15341;DHT22;7770;52.158;5.372;2023-09-30T02:26:45;12.50;99.90
15341;DHT22;7770;52.158;5.372;2023-09-30T02:29:31;12.50;99.90
15341;DHT22;7770;52.158;5.372;2023-09-30T02:32:17;12.50;99.90
15341;DHT22;7770;52.158;5.372;2023-09-30T02:35:04;12.50;99.90
15341;DHT22;7770;52.158;5.372;2023-09-30T02:37:52;12.60;99.90
15341;DHT22;7770;52.158;5.372;2023-09-30T02:40:39;12.70;99.90
15341;DHT22;7770;52.158;5.372;2023-09-30T02:43:28;12.80;99.90
15341;DHT22;7770;52.158;5.372;2023-09-30T02:46:14;12.80;99.90
15341;DHT22;7770;52.158;5.372;2023-09-30T02:49:03;12.90;99.90
15341;DHT22;7770;52.158;5.372;2023-09-30T02:51:49;12.90;99.90
15341;DHT22;7770;52.158;5.372;2023-09-30T02:54:36;12.90;99.90
15341;DHT22;7770;52.158;5.372;2023-09-30T02:57:21;12.90;99.90
15341;DHT22;7770;52.158;5.372;2023-09-30T03:00:09;12.90;99.90
15341;DHT22;7770;52.158;5.372;2023-09-30T03:03:18;13.00;99.90
15341;DHT22;7770;52.158;5.372;2023-09-30T03:06:04;12.90;99.90
15341;DHT22;7770;52.158;5.372;2023-09-30T03:08:51;13.00;99.90
15341;DHT22;7770;52.158;5.372;2023-09-30T03:11:38;13.10;99.90
15341;DHT22;7770;52.158;5.372;2023-09-30T03:14:24;13.00;99.90
15341;DHT22;7770;52.158;5.372;2023-09-30T03:17:11;13.00;99.90
15341;DHT22;7770;52.158;5.372;2023-09-30T03:19:57;13.10;99.90
15341;DHT22;7770;52.158;5.372;2023-09-30T03:22:44;13.10;99.90
15341;DHT22;7770;52.158;5.372;2023-09-30T03:25:32;13.10;99.90
15341;DHT22;7770;52.158;5.372;2023-09-30T03:28:18;13.00;99.90
15341;DHT22;7770;52.158;5.372;2023-09-30T03:31:05;13.00;99.90
15341;DHT22;7770;52.158;5.372;2023-09-30T03:33:51;13.00;99.90
15341;DHT22;7770;52.158;5.372;2023-09-30T03:36:40;12.90;99.90
15341;DHT22;7770;52.158;5.372;2023-09-30T03:39:27;12.90;99.90
15341;DHT22;7770;52.158;5.372;2023-09-30T03:42:13;12.90;99.90
15341;DHT22;7770;52.158;5.372;2023-09-30T03:44:59;12.90;99.90
15341;DHT22;7770;52.158;5.372;2023-09-30T03:47:46;12.90;99.90
15341;DHT22;7770;52.158;5.372;2023-09-30T03:50:33;12.80;99.90
15341;DHT22;7770;52.158;5.372;2023-09-30T03:53:19;12.80;99.90
15341;DHT22;7770;52.158;5.372;2023-09-30T03:56:06;12.90;99.90
15341;DHT22;7770;52.158;5.372;2023-09-30T03:58:52;12.90;99.90
15341;DHT22;7770;52.158;5.372;2023-09-30T04:01:38;12.90;99.90
15341;DHT22;7770;52.158;5.372;2023-09-30T04:04:25;12.90;99.90
15341;DHT22;7770;52.158;5.372;2023-09-30T04:07:11;12.80;99.90
15341;DHT22;7770;52.158;5.372;2023-09-30T04:10:05;12.90;99.90
15341;DHT22;7770;52.158;5.372;2023-09-30T04:12:52;12.90;99.90
15341;DHT22;7770;52.158;5.372;2023-09-30T04:15:38;12.90;99.90
15341;DHT22;7770;52.158;5.372;2023-09-30T04:18:24;12.90;99.90
15341;DHT22;7770;52.158;5.372;2023-09-30T04:21:11;12.80;99.90
15341;DHT22;7770;52.158;5.372;2023-09-30T04:23:57;12.80;99.90
15341;DHT22;7770;52.158;5.372;2023-09-30T04:26:43;12.70;99.90
15341;DHT22;7770;52.158;5.372;2023-09-30T04:29:30;12.70;99.90
15341;DHT22;7770;52.158;5.372;2023-09-30T04:32:17;12.80;99.90
15341;DHT22;7770;52.158;5.372;2023-09-30T04:35:06;12.80;99.90
15341;DHT22;7770;52.158;5.372;2023-09-30T04:37:56;12.80;99.90
15341;DHT22;7770;52.158;5.372;2023-09-30T04:40:46;12.80;99.90
15341;DHT22;7770;52.158;5.372;2023-09-30T04:43:36;12.70;99.90
15341;DHT22;7770;52.158;5.372;2023-09-30T04:46:25;12.70;99.90
15341;DHT22;7770;52.158;5.372;2023-09-30T04:49:15;12.60;99.90
15341;DHT22;7770;52.158;5.372;2023-09-30T04:52:01;12.60;99.90
15341;DHT22;7770;52.158;5.372;2023-09-30T04:54:47;12.60;99.90
15341;DHT22;7770;52.158;5.372;2023-09-30T04:57:33;12.60;99.90
15341;DHT22;7770;52.158;5.372;2023-09-30T05:00:19;12.60;99.90
15341;DHT22;7770;52.158;5.372;2023-09-30T05:03:10;12.60;99.90
15341;DHT22;7770;52.158;5.372;2023-09-30T05:05:56;12.60;99.90
15341;DHT22;7770;52.158;5.372;2023-09-30T05:08:44;12.60;99.90
15341;DHT22;7770;52.158;5.372;2023-09-30T05:11:30;12.60;99.90
15341;DHT22;7770;52.158;5.372;2023-09-30T05:14:16;12.60;99.90
15341;DHT22;7770;52.158;5.372;2023-09-30T05:17:02;12.60;99.90
15341;DHT22;7770;52.158;5.372;2023-09-30T05:19:50;12.50;99.90
15341;DHT22;7770;52.158;5.372;2023-09-30T05:22:36;12.50;99.90
15341;DHT22;7770;52.158;5.372;2023-09-30T05:25:22;12.50;99.90
15341;DHT22;7770;52.158;5.372;2023-09-30T05:28:12;12.50;99.90
15341;DHT22;7770;52.158;5.372;2023-09-30T05:30:59;12.40;99.90
15341;DHT22;7770;52.158;5.372;2023-09-30T05:33:45;12.40;99.90
15341;DHT22;7770;52.158;5.372;2023-09-30T05:36:31;12.40;99.90
15341;DHT22;7770;52.158;5.372;2023-09-30T05:39:17;12.30;99.90
15341;DHT22;7770;52.158;5.372;2023-09-30T05:42:05;12.30;99.90
15341;DHT22;7770;52.158;5.372;2023-09-30T05:44:52;12.30;99.90
15341;DHT22;7770;52.158;5.372;2023-09-30T05:47:39;12.30;99.90
15341;DHT22;7770;52.158;5.372;2023-09-30T05:50:26;12.30;99.90
15341;DHT22;7770;52.158;5.372;2023-09-30T05:53:12;12.30;99.90
15341;DHT22;7770;52.158;5.372;2023-09-30T05:55:59;12.20;99.90
15341;DHT22;7770;52.158;5.372;2023-09-30T05:58:45;12.20;99.90
15341;DHT22;7770;52.158;5.372;2023-09-30T06:01:32;12.30;99.90
15341;DHT22;7770;52.158;5.372;2023-09-30T06:04:18;12.30;99.90
15341;DHT22;7770;52.158;5.372;2023-09-30T06:07:04;12.30;99.90
15341;DHT22;7770;52.158;5.372;2023-09-30T06:09:50;12.30;99.90
15341;DHT22;7770;52.158;5.372;2023-09-30T06:12:36;12.30;99.90
15341;DHT22;7770;52.158;5.372;2023-09-30T06:15:23;12.40;99.90
15341;DHT22;7770;52.158;5.372;2023-09-30T06:18:11;12.50;99.90
15341;DHT22;7770;52.158;5.372;2023-09-30T06:20:59;12.50;99.90
15341;DHT22;7770;52.158;5.372;2023-09-30T06:23:45;12.60;99.90
15341;DHT22;7770;52.158;5.372;2023-09-30T06:26:31;12.70;99.90
15341;DHT22;7770;52.158;5.372;2023-09-30T06:29:17;12.70;99.90
15341;DHT22;7770;52.158;5.372;2023-09-30T06:32:03;12.70;99.90
15341;DHT22;7770;52.158;5.372;2023-09-30T06:34:49;12.80;99.90
15341;DHT22;7770;52.158;5.372;2023-09-30T06:37:35;12.80;99.90
15341;DHT22;7770;52.158;5.372;2023-09-30T06:40:21;12.90;99.90
15341;DHT22;7770;52.158;5.372;2023-09-30T06:43:07;13.00;99.90
15341;DHT22;7770;52.158;5.372;2023-09-30T06:45:54;13.10;99.90
15341;DHT22;7770;52.158;5.372;2023-09-30T06:48:40;13.20;99.90
15341;DHT22;7770;52.158;5.372;2023-09-30T06:51:26;13.40;99.90
15341;DHT22;7770;52.158;5.372;2023-09-30T06:54:12;13.50;99.90
15341;DHT22;7770;52.158;5.372;2023-09-30T06:56:58;13.60;99.90
15341;DHT22;7770;52.158;5.372;2023-09-30T06:59:44;13.70;99.90
15341;DHT22;7770;52.158;5.372;2023-09-30T07:02:30;13.80;99.90
15341;DHT22;7770;52.158;5.372;2023-09-30T07:05:16;13.90;99.90
15341;DHT22;7770;52.158;5.372;2023-09-30T07:08:03;14.00;99.90
15341;DHT22;7770;52.158;5.372;2023-09-30T07:10:49;14.10;99.90
15341;DHT22;7770;52.158;5.372;2023-09-30T07:13:35;14.20;99.90
15341;DHT22;7770;52.158;5.372;2023-09-30T07:16:22;14.30;99.90
15341;DHT22;7770;52.158;5.372;2023-09-30T07:19:08;14.40;99.90
15341;DHT22;7770;52.158;5.372;2023-09-30T07:21:54;14.50;99.90
15341;DHT22;7770;52.158;5.372;2023-09-30T07:24:40;14.50;99.90
15341;DHT22;7770;52.158;5.372;2023-09-30T07:27:26;14.60;99.90
15341;DHT22;7770;52.158;5.372;2023-09-30T07:30:13;14.80;99.90
15341;DHT22;7770;52.158;5.372;2023-09-30T07:33:00;14.90;99.90
15341;DHT22;7770;52.158;5.372;2023-09-30T07:35:46;15.20;99.90
15341;DHT22;7770;52.158;5.372;2023-09-30T07:38:32;15.30;99.90
15341;DHT22;7770;52.158;5.372;2023-09-30T07:41:18;15.60;99.90
15341;DHT22;7770;52.158;5.372;2023-09-30T07:44:04;15.70;99.90
15341;DHT22;7770;52.158;5.372;2023-09-30T07:46:50;15.80;99.90
15341;DHT22;7770;52.158;5.372;2023-09-30T07:49:38;15.90;99.90
15341;DHT22;7770;52.158;5.372;2023-09-30T07:52:25;16.00;99.90
15341;DHT22;7770;52.158;5.372;2023-09-30T07:55:11;16.40;99.90
15341;DHT22;7770;52.158;5.372;2023-09-30T07:57:57;16.90;99.90
15341;DHT22;7770;52.158;5.372;2023-09-30T08:00:46;17.30;99.90
15341;DHT22;7770;52.158;5.372;2023-09-30T08:03:32;18.30;99.90
15341;DHT22;7770;52.158;5.372;2023-09-30T08:06:19;19.40;99.90
15341;DHT22;7770;52.158;5.372;2023-09-30T08:09:05;20.40;99.90
15341;DHT22;7770;52.158;5.372;2023-09-30T08:11:57;21.30;99.90
15341;DHT22;7770;52.158;5.372;2023-09-30T08:14:43;22.10;99.90
15341;DHT22;7770;52.158;5.372;2023-09-30T08:17:30;22.70;99.90
15341;DHT22;7770;52.158;5.372;2023-09-30T08:20:16;23.50;99.90
15341;DHT22;7770;52.158;5.372;2023-09-30T08:23:03;23.50;99.90
15341;DHT22;7770;52.158;5.372;2023-09-30T08:25:49;23.50;99.90
15341;DHT22;7770;52.158;5.372;2023-09-30T08:28:35;23.90;99.90
15341;DHT22;7770;52.158;5.372;2023-09-30T08:31:21;24.20;99.90
15341;DHT22;7770;52.158;5.372;2023-09-30T08:34:07;24.50;99.90
15341;DHT22;7770;52.158;5.372;2023-09-30T08:36:53;24.90;99.90
15341;DHT22;7770;52.158;5.372;2023-09-30T08:39:40;25.30;99.90
15341;DHT22;7770;52.158;5.372;2023-09-30T08:42:27;25.90;99.90
15341;DHT22;7770;52.158;5.372;2023-09-30T08:45:18;26.30;99.90
15341;DHT22;7770;52.158;5.372;2023-09-30T08:48:05;26.30;99.90
15341;DHT22;7770;52.158;5.372;2023-09-30T08:50:53;25.90;99.90
15341;DHT22;7770;52.158;5.372;2023-09-30T08:53:40;25.40;99.90
15341;DHT22;7770;52.158;5.372;2023-09-30T08:56:29;24.90;99.90
15341;DHT22;7770;52.158;5.372;2023-09-30T08:59:16;24.80;99.90
15341;DHT22;7770;52.158;5.372;2023-09-30T09:02:03;25.50;99.90
15341;DHT22;7770;52.158;5.372;2023-09-30T09:04:55;26.20;99.90
15341;DHT22;7770;52.158;5.372;2023-09-30T09:07:43;26.80;99.90
15341;DHT22;7770;52.158;5.372;2023-09-30T09:10:29;27.30;99.90
15341;DHT22;7770;52.158;5.372;2023-09-30T09:13:15;27.10;99.90
15341;DHT22;7770;52.158;5.372;2023-09-30T09:16:08;27.00;99.90
15341;DHT22;7770;52.158;5.372;2023-09-30T09:18:55;26.30;99.90
15341;DHT22;7770;52.158;5.372;2023-09-30T09:21:56;25.90;99.90
15341;DHT22;7770;52.158;5.372;2023-09-30T09:24:43;25.70;99.90
15341;DHT22;7770;52.158;5.372;2023-09-30T09:27:34;25.70;99.90
15341;DHT22;7770;52.158;5.372;2023-09-30T09:30:25;26.30;99.90
15341;DHT22;7770;52.158;5.372;2023-09-30T09:33:12;26.20;99.90
15341;DHT22;7770;52.158;5.372;2023-09-30T09:35:58;26.20;99.90
15341;DHT22;7770;52.158;5.372;2023-09-30T09:38:49;25.50;99.90
15341;DHT22;7770;52.158;5.372;2023-09-30T09:41:59;24.90;99.90
15341;DHT22;7770;52.158;5.372;2023-09-30T09:44:47;24.40;99.90
15341;DHT22;7770;52.158;5.372;2023-09-30T09:47:33;23.90;99.90
15341;DHT22;7770;52.158;5.372;2023-09-30T09:50:20;23.80;99.90
15341;DHT22;7770;52.158;5.372;2023-09-30T09:53:08;24.00;99.90
15341;DHT22;7770;52.158;5.372;2023-09-30T09:55:56;24.10;99.90
15341;DHT22;7770;52.158;5.372;2023-09-30T09:58:46;23.70;99.90
15341;DHT22;7770;52.158;5.372;2023-09-30T10:01:33;23.50;99.90
15341;DHT22;7770;52.158;5.372;2023-09-30T10:04:20;24.50;99.90
15341;DHT22;7770;52.158;5.372;2023-09-30T10:07:07;25.00;99.90
15341;DHT22;7770;52.158;5.372;2023-09-30T10:09:59;25.00;99.90
15341;DHT22;7770;52.158;5.372;2023-09-30T10:12:47;25.20;99.90
15341;DHT22;7770;52.158;5.372;2023-09-30T10:18:20;26.00;99.90
15341;DHT22;7770;52.158;5.372;2023-09-30T10:21:09;26.40;99.90
15341;DHT22;7770;52.158;5.372;2023-09-30T10:30:12;27.20;99.90
15341;DHT22;7770;52.158;5.372;2023-09-30T10:35:46;25.80;99.90
15341;DHT22;7770;52.158;5.372;2023-09-30T10:50:48;28.00;99.90
15341;DHT22;7770;52.158;5.372;2023-09-30T10:56:37;28.00;99.90
15341;DHT22;7770;52.158;5.372;2023-09-30T10:59:24;27.10;99.90
15341;DHT22;7770;52.158;5.372;2023-09-30T11:02:19;26.80;99.90
15341;DHT22;7770;52.158;5.372;2023-09-30T11:05:09;26.40;99.90
15341;DHT22;7770;52.158;5.372;2023-09-30T11:07:57;25.90;99.90
15341;DHT22;7770;52.158;5.372;2023-09-30T11:10:50;25.90;99.90
15341;DHT22;7770;52.158;5.372;2023-09-30T11:13:38;26.00;99.90
15341;DHT22;7770;52.158;5.372;2023-09-30T11:16:24;25.80;99.90
15341;DHT22;7770;52.158;5.372;2023-09-30T11:19:11;25.50;99.90
15341;DHT22;7770;52.158;5.372;2023-09-30T11:21:58;25.00;99.90
15341;DHT22;7770;52.158;5.372;2023-09-30T11:24:44;25.20;99.90
15341;DHT22;7770;52.158;5.372;2023-09-30T11:27:31;25.30;99.90
15341;DHT22;7770;52.158;5.372;2023-09-30T11:30:18;25.20;99.90
15341;DHT22;7770;52.158;5.372;2023-09-30T11:33:04;25.00;99.90
15341;DHT22;7770;52.158;5.372;2023-09-30T11:36:04;25.30;99.90
15341;DHT22;7770;52.158;5.372;2023-09-30T11:38:51;25.80;99.90
15341;DHT22;7770;52.158;5.372;2023-09-30T11:41:41;26.00;99.90
15341;DHT22;7770;52.158;5.372;2023-09-30T11:44:29;25.20;99.90
15341;DHT22;7770;52.158;5.372;2023-09-30T11:47:16;24.30;99.90
15341;DHT22;7770;52.158;5.372;2023-09-30T11:50:15;23.70;99.90
15341;DHT22;7770;52.158;5.372;2023-09-30T11:53:02;23.30;99.90
15341;DHT22;7770;52.158;5.372;2023-09-30T11:55:48;23.20;99.90
15341;DHT22;7770;52.158;5.372;2023-09-30T11:58:34;23.30;99.90
15341;DHT22;7770;52.158;5.372;2023-09-30T12:01:20;23.30;99.90
15341;DHT22;7770;52.158;5.372;2023-09-30T12:04:07;23.10;99.90
15341;DHT22;7770;52.158;5.372;2023-09-30T12:06:54;22.80;99.90
15341;DHT22;7770;52.158;5.372;2023-09-30T12:09:40;22.60;99.90
15341;DHT22;7770;52.158;5.372;2023-09-30T12:12:26;22.30;99.90
15341;DHT22;7770;52.158;5.372;2023-09-30T12:15:12;22.20;99.90
15341;DHT22;7770;52.158;5.372;2023-09-30T12:17:59;22.00;99.90
15341;DHT22;7770;52.158;5.372;2023-09-30T12:20:45;21.80;99.90
15341;DHT22;7770;52.158;5.372;2023-09-30T12:23:31;21.70;99.90
15341;DHT22;7770;52.158;5.372;2023-09-30T12:26:17;21.60;99.90
15341;DHT22;7770;52.158;5.372;2023-09-30T12:29:05;21.50;99.90
15341;DHT22;7770;52.158;5.372;2023-09-30T12:31:52;21.50;99.90
15341;DHT22;7770;52.158;5.372;2023-09-30T12:34:38;21.40;99.90
15341;DHT22;7770;52.158;5.372;2023-09-30T12:37:24;21.30;99.90
15341;DHT22;7770;52.158;5.372;2023-09-30T12:40:10;21.30;99.90
15341;DHT22;7770;52.158;5.372;2023-09-30T12:42:57;21.20;99.90
15341;DHT22;7770;52.158;5.372;2023-09-30T12:45:43;21.20;99.90
15341;DHT22;7770;52.158;5.372;2023-09-30T12:48:29;21.10;99.90
15341;DHT22;7770;52.158;5.372;2023-09-30T12:51:15;20.90;99.90
15341;DHT22;7770;52.158;5.372;2023-09-30T12:54:01;20.80;99.90
15341;DHT22;7770;52.158;5.372;2023-09-30T12:56:48;20.80;99.90
15341;DHT22;7770;52.158;5.372;2023-09-30T12:59:34;20.80;99.90
15341;DHT22;7770;52.158;5.372;2023-09-30T13:02:20;20.70;99.90
15341;DHT22;7770;52.158;5.372;2023-09-30T13:05:06;20.60;99.90
15341;DHT22;7770;52.158;5.372;2023-09-30T13:07:53;20.60;99.90
15341;DHT22;7770;52.158;5.372;2023-09-30T13:10:39;20.60;99.90
15341;DHT22;7770;52.158;5.372;2023-09-30T13:13:25;20.70;99.90
15341;DHT22;7770;52.158;5.372;2023-09-30T13:16:11;20.90;99.90
15341;DHT22;7770;52.158;5.372;2023-09-30T13:18:57;21.00;99.90
15341;DHT22;7770;52.158;5.372;2023-09-30T13:21:43;21.30;99.90
15341;DHT22;7770;52.158;5.372;2023-09-30T13:24:29;21.40;99.90
15341;DHT22;7770;52.158;5.372;2023-09-30T13:27:15;21.30;99.90
15341;DHT22;7770;52.158;5.372;2023-09-30T13:30:01;21.20;99.90
15341;DHT22;7770;52.158;5.372;2023-09-30T13:32:48;21.20;99.90
15341;DHT22;7770;52.158;5.372;2023-09-30T13:35:34;21.20;99.90
15341;DHT22;7770;52.158;5.372;2023-09-30T13:38:22;21.30;99.90
15341;DHT22;7770;52.158;5.372;2023-09-30T13:41:08;21.40;99.90
15341;DHT22;7770;52.158;5.372;2023-09-30T13:43:54;21.50;99.90
15341;DHT22;7770;52.158;5.372;2023-09-30T13:46:40;21.30;99.90
15341;DHT22;7770;52.158;5.372;2023-09-30T13:49:28;21.10;99.90
15341;DHT22;7770;52.158;5.372;2023-09-30T13:52:14;20.90;99.90
15341;DHT22;7770;52.158;5.372;2023-09-30T13:55:00;20.80;99.90
15341;DHT22;7770;52.158;5.372;2023-09-30T13:57:46;21.00;99.90
15341;DHT22;7770;52.158;5.372;2023-09-30T14:00:32;21.10;99.90
15341;DHT22;7770;52.158;5.372;2023-09-30T14:03:19;21.30;99.90
15341;DHT22;7770;52.158;5.372;2023-09-30T14:06:09;21.20;99.90
15341;DHT22;7770;52.158;5.372;2023-09-30T14:08:56;21.10;99.90
15341;DHT22;7770;52.158;5.372;2023-09-30T14:11:42;21.00;99.90
15341;DHT22;7770;52.158;5.372;2023-09-30T14:14:31;20.90;99.90
15341;DHT22;7770;52.158;5.372;2023-09-30T14:17:18;20.80;99.90
15341;DHT22;7770;52.158;5.372;2023-09-30T14:20:05;20.90;99.90
15341;DHT22;7770;52.158;5.372;2023-09-30T14:22:52;20.90;99.90
15341;DHT22;7770;52.158;5.372;2023-09-30T14:25:38;20.90;99.90
15341;DHT22;7770;52.158;5.372;2023-09-30T14:28:24;20.90;99.90
15341;DHT22;7770;52.158;5.372;2023-09-30T14:31:10;20.90;99.90
15341;DHT22;7770;52.158;5.372;2023-09-30T14:33:56;20.70;99.90
15341;DHT22;7770;52.158;5.372;2023-09-30T14:36:42;20.70;99.90
15341;DHT22;7770;52.158;5.372;2023-09-30T14:39:28;20.80;99.90
15341;DHT22;7770;52.158;5.372;2023-09-30T14:42:14;20.90;99.90
15341;DHT22;7770;52.158;5.372;2023-09-30T14:44:59;20.80;99.90
15341;DHT22;7770;52.158;5.372;2023-09-30T14:47:46;20.70;99.90
15341;DHT22;7770;52.158;5.372;2023-09-30T14:50:32;20.50;99.90
15341;DHT22;7770;52.158;5.372;2023-09-30T14:53:18;20.30;99.90
15341;DHT22;7770;52.158;5.372;2023-09-30T14:56:17;20.30;99.90
15341;DHT22;7770;52.158;5.372;2023-09-30T14:59:04;20.40;99.90
15341;DHT22;7770;52.158;5.372;2023-09-30T15:01:51;20.50;99.90
15341;DHT22;7770;52.158;5.372;2023-09-30T15:04:39;20.50;99.90
15341;DHT22;7770;52.158;5.372;2023-09-30T15:07:25;20.50;99.90
15341;DHT22;7770;52.158;5.372;2023-09-30T15:10:11;20.70;99.90
15341;DHT22;7770;52.158;5.372;2023-09-30T15:12:57;20.80;99.90
15341;DHT22;7770;52.158;5.372;2023-09-30T15:15:43;20.80;99.90
15341;DHT22;7770;52.158;5.372;2023-09-30T15:18:29;20.90;99.90
15341;DHT22;7770;52.158;5.372;2023-09-30T15:21:15;20.80;99.90
15341;DHT22;7770;52.158;5.372;2023-09-30T15:24:01;20.80;99.90
15341;DHT22;7770;52.158;5.372;2023-09-30T15:26:48;20.70;99.90
15341;DHT22;7770;52.158;5.372;2023-09-30T15:29:34;20.60;99.90
15341;DHT22;7770;52.158;5.372;2023-09-30T15:32:20;20.50;99.90
15341;DHT22;7770;52.158;5.372;2023-09-30T15:35:08;20.30;99.90
15341;DHT22;7770;52.158;5.372;2023-09-30T15:37:54;20.10;99.90
15341;DHT22;7770;52.158;5.372;2023-09-30T15:40:51;19.90;99.90
15341;DHT22;7770;52.158;5.372;2023-09-30T15:43:43;19.80;99.90
15341;DHT22;7770;52.158;5.372;2023-09-30T15:46:29;19.70;99.90
15341;DHT22;7770;52.158;5.372;2023-09-30T15:49:15;19.60;99.90
15341;DHT22;7770;52.158;5.372;2023-09-30T15:52:02;19.50;99.90
15341;DHT22;7770;52.158;5.372;2023-09-30T15:54:48;19.50;99.90
15341;DHT22;7770;52.158;5.372;2023-09-30T15:57:34;19.50;99.90
15341;DHT22;7770;52.158;5.372;2023-09-30T16:00:20;19.60;99.90
15341;DHT22;7770;52.158;5.372;2023-09-30T16:03:07;19.60;99.90
15341;DHT22;7770;52.158;5.372;2023-09-30T16:05:54;19.40;99.90
15341;DHT22;7770;52.158;5.372;2023-09-30T16:08:41;19.20;99.90
15341;DHT22;7770;52.158;5.372;2023-09-30T16:11:27;19.10;99.90
15341;DHT22;7770;52.158;5.372;2023-09-30T16:14:14;19.00;99.90
15341;DHT22;7770;52.158;5.372;2023-09-30T16:17:00;18.80;99.90
15341;DHT22;7770;52.158;5.372;2023-09-30T16:19:46;18.70;99.90
15341;DHT22;7770;52.158;5.372;2023-09-30T16:22:32;18.60;99.90
15341;DHT22;7770;52.158;5.372;2023-09-30T16:25:18;18.50;99.90
15341;DHT22;7770;52.158;5.372;2023-09-30T16:28:04;18.50;99.90
15341;DHT22;7770;52.158;5.372;2023-09-30T16:30:51;18.50;99.90
15341;DHT22;7770;52.158;5.372;2023-09-30T16:33:37;18.50;99.90
15341;DHT22;7770;52.158;5.372;2023-09-30T16:36:23;18.50;99.90
15341;DHT22;7770;52.158;5.372;2023-09-30T16:39:09;18.40;99.90
15341;DHT22;7770;52.158;5.372;2023-09-30T16:41:55;18.40;99.90
15341;DHT22;7770;52.158;5.372;2023-09-30T16:44:41;18.30;99.90
15341;DHT22;7770;52.158;5.372;2023-09-30T16:47:27;18.30;99.90
15341;DHT22;7770;52.158;5.372;2023-09-30T16:50:14;18.30;99.90
15341;DHT22;7770;52.158;5.372;2023-09-30T16:53:00;18.20;99.90
15341;DHT22;7770;52.158;5.372;2023-09-30T16:55:46;18.20;99.90
15341;DHT22;7770;52.158;5.372;2023-09-30T16:58:32;18.20;99.90
15341;DHT22;7770;52.158;5.372;2023-09-30T17:01:18;18.10;99.90
15341;DHT22;7770;52.158;5.372;2023-09-30T17:04:06;18.00;99.90
15341;DHT22;7770;52.158;5.372;2023-09-30T17:06:52;17.90;99.90
15341;DHT22;7770;52.158;5.372;2023-09-30T17:09:38;17.90;99.90
15341;DHT22;7770;52.158;5.372;2023-09-30T17:12:24;17.80;99.90
15341;DHT22;7770;52.158;5.372;2023-09-30T17:15:11;17.70;99.90
15341;DHT22;7770;52.158;5.372;2023-09-30T17:17:59;17.60;99.90
15341;DHT22;7770;52.158;5.372;2023-09-30T17:20:45;17.50;99.90
15341;DHT22;7770;52.158;5.372;2023-09-30T17:23:31;17.50;99.90
15341;DHT22;7770;52.158;5.372;2023-09-30T17:26:17;17.40;99.90
15341;DHT22;7770;52.158;5.372;2023-09-30T17:29:04;17.30;99.90
15341;DHT22;7770;52.158;5.372;2023-09-30T17:31:50;17.20;99.90
15341;DHT22;7770;52.158;5.372;2023-09-30T17:34:36;17.00;99.90
15341;DHT22;7770;52.158;5.372;2023-09-30T17:37:25;16.90;99.90
15341;DHT22;7770;52.158;5.372;2023-09-30T17:40:11;16.80;99.90
15341;DHT22;7770;52.158;5.372;2023-09-30T17:42:57;16.80;99.90
15341;DHT22;7770;52.158;5.372;2023-09-30T17:45:43;16.70;99.90
15341;DHT22;7770;52.158;5.372;2023-09-30T17:48:29;16.70;99.90
15341;DHT22;7770;52.158;5.372;2023-09-30T17:51:16;16.60;99.90
15341;DHT22;7770;52.158;5.372;2023-09-30T17:54:05;16.60;99.90
15341;DHT22;7770;52.158;5.372;2023-09-30T17:56:51;16.60;99.90
15341;DHT22;7770;52.158;5.372;2023-09-30T17:59:37;16.70;99.90
15341;DHT22;7770;52.158;5.372;2023-09-30T18:02:23;16.70;99.90
15341;DHT22;7770;52.158;5.372;2023-09-30T18:05:09;16.70;99.90
15341;DHT22;7770;52.158;5.372;2023-09-30T18:07:55;16.70;99.90
15341;DHT22;7770;52.158;5.372;2023-09-30T18:10:42;16.70;99.90
15341;DHT22;7770;52.158;5.372;2023-09-30T18:13:32;16.70;99.90
15341;DHT22;7770;52.158;5.372;2023-09-30T18:16:18;16.80;99.90
15341;DHT22;7770;52.158;5.372;2023-09-30T18:19:05;16.70;99.90